Hazen, Pennsylvania
Current Conditions -  °F | °C
As of 9:53 AM on Thursday 30 Oct 2014 (Local Time) from KDUJ Reporting Station
Overcast Overcast  
Wind Chill: 37°   Ceiling: 1800
Heat Index: 43°   Visibility: 10mi
Dew Point: 37°   Wind: 12mph
Humidity: 80%   Direction: 320°NW
Pressure: 30.06"   Gusts: 16mph
Location:  41.1661°N, 79.0421°W
Report Text: KDUJ 301353Z AUTO 32010G14KT 10SM SCT011 BKN018 OVC046 06/03 A3006 RMK AO2 SLP185 T00610028
Loading
Personal Weather Stations






























Interactive Weather Map
Tropical Storm Tracking
New forecast layout! Learn more

10-Day Weather Forecast

Advertisements
Track Severe Weather on mobile